.
WxDataArchive / Data Records for 2011-12-10
2011-12-09 December 2011 2011-12-11

Data Records for Saturday, 10 December 2011

Time	Temp	Chill	HIndex	Humid	Dewpt	 Wind 	HiWind	WindDir	Rain 	Barom 
-----	----	-----	------	-----	-----	------	------	-------	-----	----- 
00:00	20.5	20.5	20.5	70	12.3	0	1	292	0.00	30.417 
00:05	20.3	20.3	20.3	70	12.1	0	1	292	0.00	30.417 
00:10	20.2	20.2	20.2	70	12.0	0	2	292	0.00	30.417 
00:15	20.0	20.0	20.0	70	11.8	0	1	292	0.00	30.419 
00:20	20.0	20.0	20.0	70	11.8	0	1	292	0.00	30.419 
00:25	19.9	19.9	19.9	71	12.0	0	1	292	0.00	30.419 
00:30	19.7	19.7	19.7	71	11.8	0	1	292	0.00	30.422 
00:35	19.5	19.5	19.5	71	11.7	0	1	292	0.00	30.422 
00:40	19.4	19.4	19.4	71	11.6	0	2	292	0.00	30.422 
00:45	19.4	19.4	19.4	72	11.9	0	1	292	0.00	30.419 
00:50	19.2	19.2	19.2	72	11.7	0	2	292	0.00	30.419 
00:55	19.2	19.2	19.2	72	11.7	0	1	292	0.00	30.419 
01:00	19.1	19.1	19.1	72	11.6	0	1	292	0.00	30.424 
01:05	19.1	19.1	19.1	72	11.6	0	1	292	0.00	30.424 
01:10	18.9	18.9	18.9	72	11.4	0	1	292	0.00	30.424 
01:15	18.8	18.8	18.8	72	11.3	0	2	248	0.00	30.425 
01:20	18.8	18.8	18.8	73	11.6	0	1	248	0.00	30.425 
01:25	18.6	18.6	18.6	73	11.4	0	1	248	0.00	30.425 
01:30	18.6	18.6	18.6	73	11.4	0	1	248	0.00	30.427 
01:35	18.4	18.4	18.4	73	11.2	0	1	248	0.00	30.427 
01:40	18.4	18.4	18.4	73	11.2	0	1	248	0.00	30.427 
01:45	18.4	18.4	18.4	73	11.2	0	1	248	0.00	30.428 
01:50	18.3	18.3	18.3	73	11.1	0	1	248	0.00	30.428 
01:55	18.3	18.3	18.3	73	11.1	0	1	248	0.00	30.428 
02:00	18.1	18.1	18.1	73	10.9	0	1	248	0.00	30.430 
02:05	18.1	18.1	18.1	73	10.9	0	1	248	0.00	30.430 
02:10	18.1	18.1	18.1	73	10.9	0	1	248	0.00	30.430 
02:15	18.0	18.0	18.0	73	10.8	0	1	248	0.00	30.435 
02:20	18.0	18.0	18.0	73	10.8	0	2	248	0.00	30.435 
02:25	18.0	18.0	18.0	73	10.8	0	1	248	0.00	30.435 
02:30	17.8	17.8	17.8	73	10.6	0	1	248	0.00	30.436 
02:35	17.7	17.7	17.7	73	10.5	0	1	248	0.00	30.436 
02:40	17.7	17.7	17.7	73	10.5	0	1	248	0.00	30.436 
02:45	17.5	17.5	17.5	73	10.3	0	1	248	0.00	30.447 
02:50	17.5	17.5	17.5	73	10.3	0	1	248	0.00	30.447 
02:55	17.3	17.3	17.3	73	10.2	0	1	248	0.00	30.447 
03:00	17.3	17.3	17.3	73	10.2	0	1	248	0.00	30.448 
03:05	17.2	17.2	17.2	73	10.1	0	1	248	0.00	30.448 
03:10	17.2	17.2	17.2	74	10.4	0	1	248	0.00	30.448 
03:15	17.0	17.0	17.0	74	10.2	0	1	248	0.00	30.452 
03:20	17.0	17.0	17.0	74	10.2	0	1	248	0.00	30.452 
03:25	16.9	16.9	16.9	74	10.1	0	1	248	0.00	30.452 
03:30	16.9	16.9	16.9	74	10.1	0	1	248	0.00	30.452 
03:35	16.7	16.7	16.7	74	9.9	0	1	248	0.00	30.452 
03:40	16.7	16.7	16.7	74	9.9	0	1	248	0.00	30.452 
03:45	16.7	16.7	16.7	74	9.9	0	1	248	0.00	30.452 
03:50	16.5	16.5	16.5	74	9.7	0	1	248	0.00	30.452 
03:55	16.5	16.5	16.5	74	9.7	0	1	248	0.00	30.452 
04:00	16.5	16.5	16.5	74	9.7	0	1	248	0.00	30.455 
04:05	16.4	16.4	16.4	75	9.9	0	1	248	0.00	30.455 
04:10	16.4	16.4	16.4	75	9.9	0	1	248	0.00	30.455 
04:15	16.4	16.4	16.4	75	9.9	0	1	248	0.00	30.458 
04:20	16.2	16.2	16.2	75	9.7	0	1	248	0.00	30.458 
04:25	16.2	16.2	16.2	75	9.7	0	1	248	0.00	30.458 
04:30	16.2	16.2	16.2	75	9.7	0	1	248	0.00	30.462 
04:35	16.1	16.1	16.1	75	9.6	0	1	248	0.00	30.462 
04:40	16.1	16.1	16.1	75	9.6	0	2	248	0.00	30.462 
04:45	16.1	16.1	16.1	75	9.6	0	1	248	0.00	30.459 
04:50	15.9	15.9	15.9	75	9.4	0	1	248	0.00	30.459 
04:55	15.9	15.9	15.9	75	9.4	0	2	248	0.00	30.459 
05:00	15.9	15.9	15.9	75	9.4	0	2	248	0.00	30.462 
05:05	15.7	15.7	15.7	75	9.2	0	1	248	0.00	30.462 
05:10	15.7	15.7	15.7	75	9.2	0	1	248	0.00	30.462 
05:15	15.7	15.7	15.7	75	9.2	0	1	248	0.00	30.468 
05:20	15.6	15.6	15.6	75	9.1	0	1	248	0.00	30.468 
05:25	15.6	15.6	15.6	75	9.1	0	1	248	0.00	30.468 
05:30	15.4	15.4	15.4	75	8.9	0	1	248	0.00	30.465 
05:35	15.4	15.4	15.4	75	8.9	0	1	248	0.00	30.465 
05:40	15.4	15.4	15.4	75	8.9	0	1	248	0.00	30.465 
05:45	15.2	15.2	15.2	75	8.7	0	1	248	0.00	30.471 
05:50	15.2	15.2	15.2	75	8.7	0	1	248	0.00	30.471 
05:55	15.1	15.1	15.1	75	8.6	0	0	---	0.00	30.471 
06:00	15.1	15.1	15.1	75	8.6	0	1	248	0.00	30.477 
06:05	14.9	14.9	14.9	75	8.4	0	1	248	0.00	30.477 
06:10	14.9	14.9	14.9	76	8.7	0	1	248	0.00	30.477 
06:15	14.9	14.9	14.9	76	8.7	0	1	248	0.00	30.481 
06:20	14.9	14.9	14.9	76	8.7	0	1	248	0.00	30.481 
06:25	14.8	14.8	14.8	76	8.6	0	1	248	0.00	30.481 
06:30	14.8	14.8	14.8	76	8.6	0	1	248	0.00	30.484 
06:35	14.8	14.8	14.8	76	8.6	0	1	248	0.00	30.484 
06:40	14.8	14.8	14.8	76	8.6	0	1	248	0.00	30.484 
06:45	14.8	14.8	14.8	76	8.6	0	1	248	0.00	30.484 
06:50	14.8	14.8	14.8	77	8.9	0	1	248	0.00	30.484 
06:55	14.8	14.8	14.8	77	8.9	0	1	248	0.00	30.484 
07:00	14.8	14.8	14.8	77	8.9	0	1	248	0.00	30.488 
07:05	14.6	14.6	14.6	77	8.7	0	2	248	0.00	30.488 
07:10	14.6	14.6	14.6	77	8.7	0	1	248	0.00	30.488 
07:15	14.6	14.6	14.6	77	8.7	0	2	248	0.00	30.490 
07:20	14.4	14.4	14.4	77	8.5	0	2	248	0.00	30.490 
07:25	14.4	14.4	14.4	77	8.5	0	2	248	0.00	30.490 
07:30	14.4	14.4	14.4	77	8.5	0	2	248	0.00	30.494 
07:35	14.4	14.4	14.4	77	8.5	0	1	248	0.00	30.494 
07:40	14.3	14.3	14.3	77	8.4	0	1	248	0.00	30.494 
07:45	14.3	14.3	14.3	77	8.4	0	1	248	0.00	30.505 
07:50	14.3	14.3	14.3	77	8.4	0	1	248	0.00	30.505 
07:55	14.1	14.1	14.1	77	8.2	0	1	248	0.00	30.505 
08:00	14.1	14.1	14.1	77	8.2	0	1	248	0.00	30.510 
08:05	14.1	14.1	14.1	77	8.2	0	1	248	0.00	30.510 
08:10	14.1	14.1	14.1	77	8.2	0	1	248	0.00	30.510 
08:15	14.3	14.3	14.3	77	8.4	0	1	248	0.00	30.520 
08:20	14.3	14.3	14.3	77	8.4	0	2	248	0.00	30.520 
08:25	14.4	14.4	14.4	77	8.5	0	2	248	0.00	30.520 
08:30	14.6	14.6	14.6	77	8.7	0	3	248	0.00	30.522 
08:35	14.8	14.8	14.8	77	8.9	0	2	248	0.00	30.522 
08:40	14.9	14.9	14.9	77	9.0	0	2	248	0.00	30.522 
08:45	15.1	15.1	15.1	77	9.2	1	3	248	0.00	30.524 
08:50	15.2	15.2	15.2	76	9.0	1	2	270	0.00	30.524 
08:55	15.4	15.4	15.4	76	9.2	1	3	270	0.00	30.524 
09:00	15.6	15.6	15.6	75	9.1	1	4	248	0.00	30.536 
09:05	15.7	15.7	15.7	75	9.2	1	3	248	0.00	30.536 
09:10	16.1	16.1	16.1	74	9.3	1	2	248	0.00	30.536 
09:15	16.2	16.2	16.2	74	9.4	1	3	248	0.00	30.550 
09:20	16.5	16.5	16.5	73	9.4	1	2	248	0.00	30.550 
09:25	16.5	16.5	16.5	73	9.4	1	4	248	0.00	30.550 
09:30	16.9	16.9	16.9	72	9.5	1	2	248	0.00	30.549 
09:35	17.2	17.2	17.2	73	10.1	1	4	248	0.00	30.549 
09:40	17.3	17.3	17.3	72	9.8	0	2	270	0.00	30.549 
09:45	17.7	17.7	17.7	71	9.9	1	3	270	0.00	30.550 
09:50	17.8	17.8	17.8	71	10.0	1	2	248	0.00	30.550 
09:55	18.1	18.1	18.1	70	10.0	1	3	248	0.00	30.550 
10:00	18.4	18.4	18.4	70	10.3	1	3	248	0.00	30.552 
10:05	18.8	18.8	18.8	69	10.3	1	3	248	0.00	30.552 
10:10	19.1	19.1	19.1	69	10.6	1	3	248	0.00	30.552 
10:15	19.2	19.2	19.2	68	10.4	1	3	270	0.00	30.556 
10:20	19.5	19.5	19.5	67	10.4	1	3	270	0.00	30.556 
10:25	19.7	19.7	19.7	67	10.5	1	3	270	0.00	30.556 
10:30	20.0	20.0	20.0	67	10.8	1	2	270	0.00	30.560 
10:35	20.5	20.5	20.5	66	11.0	1	3	270	0.00	30.560 
10:40	20.8	20.8	20.8	66	11.3	1	3	248	0.00	30.560 
10:45	21.1	21.1	21.1	66	11.5	0	3	248	0.00	30.564 
10:50	21.4	21.4	21.4	65	11.5	1	3	248	0.00	30.564 
10:55	21.6	21.6	21.6	64	11.3	1	5	248	0.00	30.564 
11:00	21.9	21.9	21.9	64	11.6	1	3	248	0.00	30.562 
11:05	22.2	22.2	22.2	63	11.6	1	3	292	0.00	30.562 
11:10	22.4	22.4	22.4	62	11.4	2	4	248	0.00	30.562 
11:15	22.5	22.5	22.5	63	11.8	1	3	248	0.00	30.561 
11:20	23.0	23.0	23.0	63	12.3	1	3	248	0.00	30.561 
11:25	23.0	23.0	23.0	63	12.3	1	3	248	0.00	30.561 
11:30	23.2	23.2	23.2	63	12.5	1	4	248	0.00	30.563 
11:35	23.3	23.3	23.3	62	12.2	1	3	248	0.00	30.563 
11:40	23.5	23.5	23.5	62	12.4	1	5	248	0.00	30.563 
11:45	23.5	23.5	23.5	61	12.1	2	4	270	0.00	30.563 
11:50	23.5	23.5	23.5	59	11.3	2	5	248	0.00	30.563 
11:55	23.5	23.5	23.5	59	11.3	2	5	248	0.00	30.563 
12:00	23.8	23.8	23.8	59	11.6	2	4	248	0.00	30.560 
12:05	23.9	23.9	23.9	59	11.7	2	4	248	0.00	30.560 
12:10	23.9	23.9	23.9	58	11.3	2	4	270	0.00	30.560 
12:15	24.1	24.1	24.1	56	10.7	2	4	248	0.00	30.553 
12:20	24.2	24.2	24.2	57	11.2	1	3	248	0.00	30.553 
12:25	24.4	24.4	24.4	57	11.4	1	3	248	0.00	30.553 
12:30	24.4	24.4	24.4	56	11.0	1	3	248	0.00	30.550 
12:35	24.5	24.5	24.5	55	10.7	1	3	248	0.00	30.550 
12:40	24.7	24.7	24.7	52	9.6	1	4	338	0.00	30.550 
12:45	24.7	24.7	24.7	48	7.8	2	4	338	0.00	30.547 
12:50	24.7	24.7	24.7	44	5.9	2	4	270	0.00	30.547 
12:55	24.7	24.7	24.7	43	5.4	2	4	270	0.00	30.547 
13:00	24.7	24.7	24.7	41	4.4	2	5	270	0.00	30.543 
13:05	24.8	24.8	24.8	42	5.0	2	3	225	0.00	30.543 
13:10	25.0	25.0	25.0	41	4.7	2	4	270	0.00	30.543 
13:15	25.0	25.0	25.0	39	3.6	2	4	270	0.00	30.540 
13:20	25.0	25.0	25.0	40	4.1	2	3	292	0.00	30.540 
13:25	25.0	25.0	25.0	40	4.1	2	5	248	0.00	30.540 
13:30	25.0	25.0	25.0	41	4.7	2	4	292	0.00	30.536 
13:35	25.0	25.0	25.0	43	5.7	2	4	248	0.00	30.536 
13:40	25.1	25.1	25.1	44	6.3	1	3	270	0.00	30.536 
13:45	25.3	25.3	25.3	43	6.0	2	6	248	0.00	30.535 
13:50	25.3	25.3	25.3	44	6.5	1	4	225	0.00	30.535 
13:55	25.1	25.1	25.1	44	6.3	2	4	270	0.00	30.535 
14:00	25.1	25.1	25.1	45	6.8	2	5	248	0.00	30.535 
14:05	25.1	25.1	25.1	45	6.8	1	4	248	0.00	30.535 
14:10	25.0	25.0	25.0	46	7.2	2	4	270	0.00	30.535 
14:15	25.1	25.1	25.1	46	7.3	2	4	270	0.00	30.533 
14:20	25.1	25.1	25.1	48	8.2	1	4	248	0.00	30.533 
14:25	25.3	25.3	25.3	47	7.9	2	6	248	0.00	30.533 
14:30	25.3	25.3	25.3	47	7.9	1	4	248	0.00	30.527 
14:35	25.3	25.3	25.3	47	7.9	1	3	248	0.00	30.527 
14:40	25.6	25.6	25.6	47	8.2	1	4	248	0.00	30.527 
14:45	25.6	25.6	25.6	46	7.7	2	4	248	0.00	30.523 
14:50	25.6	25.6	25.6	46	7.7	1	5	248	0.00	30.523 
14:55	25.6	25.6	25.6	46	7.7	1	3	248	0.00	30.523 
15:00	25.6	25.6	25.6	44	6.7	2	5	248	0.00	30.517 
15:05	25.4	25.4	25.4	47	8.0	1	4	270	0.00	30.517 
15:10	25.3	25.3	25.3	45	7.0	2	3	248	0.00	30.517 
15:15	25.3	25.3	25.3	45	7.0	1	4	248	0.00	30.516 
15:20	25.3	25.3	25.3	43	6.0	2	5	270	0.00	30.516 
15:25	25.3	25.3	25.3	45	7.0	1	3	270	0.00	30.516 
15:30	25.6	25.6	25.6	45	7.2	1	4	270	0.00	30.515 
15:35	25.4	25.4	25.4	43	6.1	1	3	270	0.00	30.515 
15:40	25.4	25.4	25.4	45	7.1	1	4	270	0.00	30.515 
15:45	25.6	25.6	25.6	45	7.2	2	6	248	0.00	30.513 
15:50	25.4	25.4	25.4	42	5.5	1	3	248	0.00	30.513 
15:55	25.3	25.3	25.3	41	4.9	1	4	248	0.00	30.513 
16:00	25.3	25.3	25.3	42	5.5	1	4	248	0.00	30.516 
16:05	25.1	25.1	25.1	43	5.8	1	5	248	0.00	30.516 
16:10	25.1	25.1	25.1	42	5.3	1	3	248	0.00	30.516 
16:15	25.0	25.0	25.0	42	5.2	1	3	248	0.00	30.519 
16:20	24.8	24.8	24.8	42	5.0	1	3	248	0.00	30.519 
16:25	24.7	24.7	24.7	43	5.4	1	2	248	0.00	30.519 
16:30	24.7	24.7	24.7	43	5.4	0	2	248	0.00	30.518 
16:35	24.7	24.7	24.7	43	5.4	0	2	248	0.00	30.518 
16:40	24.5	24.5	24.5	43	5.2	0	1	248	0.00	30.518 
16:45	24.4	24.4	24.4	43	5.2	0	2	248	0.00	30.521 
16:50	24.1	24.1	24.1	44	5.4	0	1	248	0.00	30.521 
16:55	23.9	23.9	23.9	43	4.7	0	2	248	0.00	30.521 
17:00	23.6	23.6	23.6	44	4.9	0	3	248	0.00	30.520 
17:05	23.5	23.5	23.5	45	5.3	0	1	248	0.00	30.520 
17:10	23.2	23.2	23.2	45	5.0	0	1	248	0.00	30.520 
17:15	23.0	23.0	23.0	46	5.3	0	1	248	0.00	30.522 
17:20	22.9	22.9	22.9	47	5.7	0	1	248	0.00	30.522 
17:25	22.7	22.7	22.7	48	6.0	0	1	248	0.00	30.522 
17:30	22.4	22.4	22.4	48	5.7	0	3	248	0.00	30.524 
17:35	22.4	22.4	22.4	48	5.7	0	0	---	0.00	30.524 
17:40	22.1	22.1	22.1	49	5.9	0	0	---	0.00	30.524 
17:45	21.9	21.9	21.9	50	6.1	0	0	---	0.00	30.529 
17:50	21.8	21.8	21.8	50	6.1	0	0	---	0.00	30.529 
17:55	21.6	21.6	21.6	51	6.3	0	0	---	0.00	30.529 
18:00	21.3	21.3	21.3	51	6.0	0	0	---	0.00	30.534 
18:05	21.1	21.1	21.1	52	6.3	0	0	---	0.00	30.534 
18:10	20.8	20.8	20.8	53	6.4	0	0	---	0.00	30.534 
18:15	20.6	20.6	20.6	54	6.6	0	0	---	0.00	30.534 
18:20	20.5	20.5	20.5	54	6.5	0	0	---	0.00	30.534 
18:25	20.2	20.2	20.2	54	6.2	0	0	---	0.00	30.534 
18:30	20.0	20.0	20.0	55	6.5	0	0	---	0.00	30.542 
18:35	19.9	19.9	19.9	55	6.4	0	0	---	0.00	30.542 
18:40	19.7	19.7	19.7	56	6.6	0	0	---	0.00	30.542 
18:45	19.5	19.5	19.5	57	6.8	0	0	---	0.00	30.552 
18:50	19.5	19.5	19.5	58	7.2	0	0	---	0.00	30.552 
18:55	19.7	19.7	19.7	59	7.7	0	1	248	0.00	30.552 
19:00	19.7	19.7	19.7	59	7.7	0	0	---	0.00	30.555 
19:05	19.9	19.9	19.9	59	7.9	0	1	248	0.00	30.555 
19:10	20.0	20.0	20.0	59	8.0	0	0	---	0.00	30.555 
19:15	20.0	20.0	20.0	59	8.0	0	0	---	0.00	30.556 
19:20	19.9	19.9	19.9	59	7.9	0	0	---	0.00	30.556 
19:25	19.7	19.7	19.7	60	8.1	0	0	---	0.00	30.556 
19:30	19.5	19.5	19.5	60	7.9	0	0	---	0.00	30.558 
19:35	19.4	19.4	19.4	61	8.2	0	0	---	0.00	30.558 
19:40	19.2	19.2	19.2	62	8.3	0	1	248	0.00	30.558 
19:45	19.2	19.2	19.2	62	8.3	0	1	248	0.00	30.556 
19:50	19.2	19.2	19.2	62	8.3	0	1	248	0.00	30.556 
19:55	19.2	19.2	19.2	63	8.7	0	0	---	0.00	30.556 
20:00	19.2	19.2	19.2	63	8.7	0	1	248	0.00	30.547 
20:05	19.2	19.2	19.2	63	8.7	0	1	248	0.00	30.547 
20:10	19.2	19.2	19.2	63	8.7	0	1	248	0.00	30.547 
20:15	19.4	19.4	19.4	63	8.9	0	0	---	0.00	30.548 
20:20	19.4	19.4	19.4	63	8.9	0	0	---	0.00	30.548 
20:25	19.2	19.2	19.2	63	8.7	0	0	---	0.00	30.548 
20:30	19.1	19.1	19.1	63	8.6	0	0	---	0.00	30.546 
20:35	18.9	18.9	18.9	63	8.4	0	0	---	0.00	30.546 
20:40	18.6	18.6	18.6	64	8.5	0	0	---	0.00	30.546 
20:45	18.4	18.4	18.4	64	8.3	0	0	---	0.00	30.542 
20:50	18.3	18.3	18.3	64	8.2	0	0	---	0.00	30.542 
20:55	18.1	18.1	18.1	65	8.3	0	0	---	0.00	30.542 
21:00	18.0	18.0	18.0	65	8.3	0	0	---	0.00	30.542 
21:05	17.8	17.8	17.8	66	8.4	0	0	---	0.00	30.542 
21:10	17.7	17.7	17.7	66	8.3	0	0	---	0.00	30.542 
21:15	17.5	17.5	17.5	66	8.1	0	0	---	0.00	30.540 
21:20	17.3	17.3	17.3	66	7.9	0	0	---	0.00	30.540 
21:25	17.2	17.2	17.2	66	7.8	0	0	---	0.00	30.540 
21:30	17.0	17.0	17.0	66	7.6	0	0	---	0.00	30.544 
21:35	16.9	16.9	16.9	66	7.5	0	0	---	0.00	30.544 
21:40	16.7	16.7	16.7	67	7.7	0	0	---	0.00	30.544 
21:45	16.5	16.5	16.5	67	7.5	0	0	---	0.00	30.545 
21:50	16.4	16.4	16.4	68	7.7	0	0	---	0.00	30.545 
21:55	16.4	16.4	16.4	68	7.7	0	0	---	0.00	30.545 
22:00	16.2	16.2	16.2	69	7.8	0	0	---	0.00	30.545 
22:05	16.1	16.1	16.1	69	7.8	0	0	---	0.00	30.545 
22:10	15.9	15.9	15.9	70	7.9	0	0	---	0.00	30.545 
22:15	15.9	15.9	15.9	70	7.9	0	0	---	0.00	30.541 
22:20	15.7	15.7	15.7	71	8.0	0	0	---	0.00	30.541 
22:25	15.7	15.7	15.7	71	8.0	0	0	---	0.00	30.541 
22:30	15.9	15.9	15.9	71	8.2	0	0	---	0.00	30.539 
22:35	15.9	15.9	15.9	71	8.2	0	0	---	0.00	30.539 
22:40	16.1	16.1	16.1	71	8.4	0	0	---	0.00	30.539 
22:45	16.1	16.1	16.1	71	8.4	0	0	---	0.00	30.542 
22:50	16.1	16.1	16.1	71	8.4	0	0	---	0.00	30.542 
22:55	16.1	16.1	16.1	71	8.4	0	0	---	0.00	30.542 
23:00	16.1	16.1	16.1	71	8.4	0	0	---	0.00	30.545 
23:05	16.1	16.1	16.1	71	8.4	0	0	---	0.00	30.545 
23:10	16.1	16.1	16.1	71	8.4	0	0	---	0.00	30.545 
23:15	16.1	16.1	16.1	71	8.4	0	1	248	0.00	30.543 
23:20	16.1	16.1	16.1	70	8.1	0	0	---	0.00	30.543 
23:25	16.1	16.1	16.1	70	8.1	0	0	---	0.00	30.543 
23:30	16.1	16.1	16.1	70	8.1	0	0	---	0.00	30.542 
23:35	15.9	15.9	15.9	70	7.9	0	0	---	0.00	30.542 
23:40	15.9	15.9	15.9	70	7.9	0	0	---	0.00	30.542 
23:45	15.9	15.9	15.9	71	8.2	0	0	---	0.00	30.537 
23:50	16.1	16.1	16.1	71	8.4	0	0	---	0.00	30.537 
23:55	16.2	16.2	16.2	71	8.5	0	0	---	0.00	30.537 

CoCoRaHS
IN-AL-39
A2 Web Hosting
Creative Commons License
GoDaddy
search engine by freefind advanced

loaded 2018-11-13 01:35:21 • last modified 2010-11-18 10:43:29
Privacy PolicyDisclaimer
• wx.awcolley.com is powered by PmWiki v.2002016 •
• all content (unless otherwise noted) © 2018 A W Colley